sensor_id;sensor_type;location;lat;lon;timestamp;P1;durP1;ratioP1;P2;durP2;ratioP2
59300;SDS011;45073;52.740;6.784;2023-04-27T00:01:12;7.38;;;3.40;;
59300;SDS011;45073;52.740;6.784;2023-04-27T00:03:38;9.70;;;3.30;;
59300;SDS011;45073;52.740;6.784;2023-04-27T00:06:05;10.60;;;3.92;;
59300;SDS011;45073;52.740;6.784;2023-04-27T00:08:32;9.73;;;3.20;;
59300;SDS011;45073;52.740;6.784;2023-04-27T00:10:58;10.10;;;3.47;;
59300;SDS011;45073;52.740;6.784;2023-04-27T00:13:24;11.18;;;4.25;;
59300;SDS011;45073;52.740;6.784;2023-04-27T00:15:51;10.95;;;4.00;;
59300;SDS011;45073;52.740;6.784;2023-04-27T00:18:16;8.65;;;3.58;;
59300;SDS011;45073;52.740;6.784;2023-04-27T00:20:42;8.93;;;3.85;;
59300;SDS011;45073;52.740;6.784;2023-04-27T00:23:08;14.10;;;4.53;;
59300;SDS011;45073;52.740;6.784;2023-04-27T00:25:34;8.60;;;3.17;;
59300;SDS011;45073;52.740;6.784;2023-04-27T00:28:00;10.98;;;3.65;;
59300;SDS011;45073;52.740;6.784;2023-04-27T00:30:25;10.00;;;3.67;;
59300;SDS011;45073;52.740;6.784;2023-04-27T00:32:51;8.40;;;3.03;;
59300;SDS011;45073;52.740;6.784;2023-04-27T00:35:16;9.07;;;3.42;;
59300;SDS011;45073;52.740;6.784;2023-04-27T00:37:42;11.20;;;3.65;;
59300;SDS011;45073;52.740;6.784;2023-04-27T00:40:08;9.68;;;3.90;;
59300;SDS011;45073;52.740;6.784;2023-04-27T00:42:34;13.10;;;3.85;;
59300;SDS011;45073;52.740;6.784;2023-04-27T00:45:00;10.73;;;3.95;;
59300;SDS011;45073;52.740;6.784;2023-04-27T00:47:27;9.52;;;3.72;;
59300;SDS011;45073;52.740;6.784;2023-04-27T00:49:54;8.77;;;3.05;;
59300;SDS011;45073;52.740;6.784;2023-04-27T00:52:20;9.50;;;3.65;;
59300;SDS011;45073;52.740;6.784;2023-04-27T00:54:47;9.38;;;3.70;;
59300;SDS011;45073;52.740;6.784;2023-04-27T00:57:15;6.63;;;2.80;;
59300;SDS011;45073;52.740;6.784;2023-04-27T00:59:41;8.30;;;3.10;;
59300;SDS011;45073;52.740;6.784;2023-04-27T01:02:08;8.88;;;3.28;;
59300;SDS011;45073;52.740;6.784;2023-04-27T01:04:35;7.07;;;3.03;;
59300;SDS011;45073;52.740;6.784;2023-04-27T01:07:01;8.82;;;3.58;;
59300;SDS011;45073;52.740;6.784;2023-04-27T01:09:27;8.73;;;3.17;;
59300;SDS011;45073;52.740;6.784;2023-04-27T01:11:53;13.82;;;4.03;;
59300;SDS011;45073;52.740;6.784;2023-04-27T01:14:19;10.13;;;3.40;;
59300;SDS011;45073;52.740;6.784;2023-04-27T01:16:44;10.68;;;3.95;;
59300;SDS011;45073;52.740;6.784;2023-04-27T01:19:10;13.55;;;4.68;;
59300;SDS011;45073;52.740;6.784;2023-04-27T01:21:36;9.00;;;3.10;;
59300;SDS011;45073;52.740;6.784;2023-04-27T01:24:05;10.60;;;4.47;;
59300;SDS011;45073;52.740;6.784;2023-04-27T01:26:31;8.20;;;3.55;;
59300;SDS011;45073;52.740;6.784;2023-04-27T01:28:57;11.82;;;4.57;;
59300;SDS011;45073;52.740;6.784;2023-04-27T01:31:23;9.25;;;3.72;;
59300;SDS011;45073;52.740;6.784;2023-04-27T01:33:48;10.57;;;3.92;;
59300;SDS011;45073;52.740;6.784;2023-04-27T01:36:14;10.95;;;3.75;;
59300;SDS011;45073;52.740;6.784;2023-04-27T01:38:40;10.85;;;4.40;;
59300;SDS011;45073;52.740;6.784;2023-04-27T01:41:05;9.60;;;4.25;;
59300;SDS011;45073;52.740;6.784;2023-04-27T01:43:33;11.27;;;5.07;;
59300;SDS011;45073;52.740;6.784;2023-04-27T01:46:10;9.40;;;3.97;;
59300;SDS011;45073;52.740;6.784;2023-04-27T01:48:37;9.63;;;4.00;;
59300;SDS011;45073;52.740;6.784;2023-04-27T01:51:03;12.88;;;4.03;;
59300;SDS011;45073;52.740;6.784;2023-04-27T01:53:29;9.13;;;4.10;;
59300;SDS011;45073;52.740;6.784;2023-04-27T01:55:55;9.93;;;3.97;;
59300;SDS011;45073;52.740;6.784;2023-04-27T01:58:21;10.73;;;4.25;;
59300;SDS011;45073;52.740;6.784;2023-04-27T02:00:46;10.32;;;4.38;;
59300;SDS011;45073;52.740;6.784;2023-04-27T02:03:12;12.93;;;4.57;;
59300;SDS011;45073;52.740;6.784;2023-04-27T02:05:37;11.18;;;4.50;;
59300;SDS011;45073;52.740;6.784;2023-04-27T02:08:03;11.27;;;4.75;;
59300;SDS011;45073;52.740;6.784;2023-04-27T02:10:29;8.15;;;3.55;;
59300;SDS011;45073;52.740;6.784;2023-04-27T02:12:55;10.32;;;3.65;;
59300;SDS011;45073;52.740;6.784;2023-04-27T02:15:21;6.82;;;2.70;;
59300;SDS011;45073;52.740;6.784;2023-04-27T02:17:46;11.82;;;2.55;;
59300;SDS011;45073;52.740;6.784;2023-04-27T02:20:12;21.02;;;2.83;;
59300;SDS011;45073;52.740;6.784;2023-04-27T02:22:41;14.43;;;2.05;;
59300;SDS011;45073;52.740;6.784;2023-04-27T02:25:08;5.60;;;1.92;;
59300;SDS011;45073;52.740;6.784;2023-04-27T02:27:39;14.50;;;2.25;;
59300;SDS011;45073;52.740;6.784;2023-04-27T02:32:32;7.22;;;2.72;;
59300;SDS011;45073;52.740;6.784;2023-04-27T02:34:58;8.30;;;2.80;;
59300;SDS011;45073;52.740;6.784;2023-04-27T02:37:24;9.23;;;3.42;;
59300;SDS011;45073;52.740;6.784;2023-04-27T02:39:49;8.68;;;2.95;;
59300;SDS011;45073;52.740;6.784;2023-04-27T02:42:15;9.57;;;4.13;;
59300;SDS011;45073;52.740;6.784;2023-04-27T02:44:41;10.07;;;4.15;;
59300;SDS011;45073;52.740;6.784;2023-04-27T02:47:07;11.20;;;4.43;;
59300;SDS011;45073;52.740;6.784;2023-04-27T02:49:33;8.57;;;3.33;;
59300;SDS011;45073;52.740;6.784;2023-04-27T02:51:59;9.13;;;3.72;;
59300;SDS011;45073;52.740;6.784;2023-04-27T02:54:25;8.93;;;3.75;;
59300;SDS011;45073;52.740;6.784;2023-04-27T02:56:50;10.23;;;4.25;;
59300;SDS011;45073;52.740;6.784;2023-04-27T02:59:16;10.25;;;3.95;;
59300;SDS011;45073;52.740;6.784;2023-04-27T03:01:42;9.85;;;4.18;;
59300;SDS011;45073;52.740;6.784;2023-04-27T03:04:08;9.48;;;4.22;;
59300;SDS011;45073;52.740;6.784;2023-04-27T03:06:33;9.02;;;4.18;;
59300;SDS011;45073;52.740;6.784;2023-04-27T03:08:59;10.15;;;4.38;;
59300;SDS011;45073;52.740;6.784;2023-04-27T03:11:25;10.15;;;3.88;;
59300;SDS011;45073;52.740;6.784;2023-04-27T03:13:50;12.57;;;4.30;;
59300;SDS011;45073;52.740;6.784;2023-04-27T03:16:16;9.32;;;4.60;;
59300;SDS011;45073;52.740;6.784;2023-04-27T03:18:41;14.70;;;4.07;;
59300;SDS011;45073;52.740;6.784;2023-04-27T03:21:07;10.10;;;4.63;;
59300;SDS011;45073;52.740;6.784;2023-04-27T03:23:34;9.80;;;4.05;;
59300;SDS011;45073;52.740;6.784;2023-04-27T03:26:19;9.73;;;4.38;;
59300;SDS011;45073;52.740;6.784;2023-04-27T03:28:45;13.27;;;4.75;;
59300;SDS011;45073;52.740;6.784;2023-04-27T03:31:11;11.35;;;4.88;;
59300;SDS011;45073;52.740;6.784;2023-04-27T03:33:38;13.45;;;4.50;;
59300;SDS011;45073;52.740;6.784;2023-04-27T03:36:04;11.50;;;5.28;;
59300;SDS011;45073;52.740;6.784;2023-04-27T03:38:31;10.30;;;4.80;;
59300;SDS011;45073;52.740;6.784;2023-04-27T03:40:57;12.75;;;5.03;;
59300;SDS011;45073;52.740;6.784;2023-04-27T03:43:23;11.88;;;5.15;;
59300;SDS011;45073;52.740;6.784;2023-04-27T03:45:49;11.65;;;4.95;;
59300;SDS011;45073;52.740;6.784;2023-04-27T03:48:15;11.88;;;4.25;;
59300;SDS011;45073;52.740;6.784;2023-04-27T03:50:41;10.23;;;4.45;;
59300;SDS011;45073;52.740;6.784;2023-04-27T03:53:07;10.40;;;5.28;;
59300;SDS011;45073;52.740;6.784;2023-04-27T03:55:33;11.35;;;4.43;;
59300;SDS011;45073;52.740;6.784;2023-04-27T03:58:01;10.48;;;4.53;;
59300;SDS011;45073;52.740;6.784;2023-04-27T04:00:27;14.10;;;5.32;;
59300;SDS011;45073;52.740;6.784;2023-04-27T04:02:52;14.75;;;5.55;;
59300;SDS011;45073;52.740;6.784;2023-04-27T04:05:18;10.00;;;4.30;;
59300;SDS011;45073;52.740;6.784;2023-04-27T04:07:44;11.25;;;4.57;;
59300;SDS011;45073;52.740;6.784;2023-04-27T04:10:09;10.25;;;4.20;;
59300;SDS011;45073;52.740;6.784;2023-04-27T04:12:35;8.88;;;3.92;;
59300;SDS011;45073;52.740;6.784;2023-04-27T04:15:01;10.25;;;4.32;;
59300;SDS011;45073;52.740;6.784;2023-04-27T04:17:28;11.02;;;5.10;;
59300;SDS011;45073;52.740;6.784;2023-04-27T04:19:53;10.77;;;4.20;;
59300;SDS011;45073;52.740;6.784;2023-04-27T04:22:19;10.40;;;4.28;;
59300;SDS011;45073;52.740;6.784;2023-04-27T04:24:45;10.23;;;4.35;;
59300;SDS011;45073;52.740;6.784;2023-04-27T04:27:11;12.63;;;5.25;;
59300;SDS011;45073;52.740;6.784;2023-04-27T04:29:37;9.13;;;4.20;;
59300;SDS011;45073;52.740;6.784;2023-04-27T04:32:03;10.00;;;4.15;;
59300;SDS011;45073;52.740;6.784;2023-04-27T04:34:29;11.00;;;3.80;;
59300;SDS011;45073;52.740;6.784;2023-04-27T04:36:55;10.52;;;4.97;;
59300;SDS011;45073;52.740;6.784;2023-04-27T04:39:21;10.30;;;4.53;;
59300;SDS011;45073;52.740;6.784;2023-04-27T04:41:47;11.60;;;5.28;;
59300;SDS011;45073;52.740;6.784;2023-04-27T04:44:14;10.20;;;4.88;;
59300;SDS011;45073;52.740;6.784;2023-04-27T04:46:40;11.68;;;4.57;;
59300;SDS011;45073;52.740;6.784;2023-04-27T04:49:06;12.55;;;5.63;;
59300;SDS011;45073;52.740;6.784;2023-04-27T04:51:32;10.85;;;5.18;;
59300;SDS011;45073;52.740;6.784;2023-04-27T04:53:58;13.60;;;5.65;;
59300;SDS011;45073;52.740;6.784;2023-04-27T04:56:23;11.80;;;5.55;;
59300;SDS011;45073;52.740;6.784;2023-04-27T04:58:49;11.02;;;4.57;;
59300;SDS011;45073;52.740;6.784;2023-04-27T05:01:15;14.88;;;5.95;;
59300;SDS011;45073;52.740;6.784;2023-04-27T05:03:41;10.88;;;5.57;;
59300;SDS011;45073;52.740;6.784;2023-04-27T05:06:06;11.02;;;5.43;;
59300;SDS011;45073;52.740;6.784;2023-04-27T05:08:32;10.90;;;5.60;;
59300;SDS011;45073;52.740;6.784;2023-04-27T05:10:58;11.38;;;5.70;;
59300;SDS011;45073;52.740;6.784;2023-04-27T05:13:23;12.70;;;5.47;;
59300;SDS011;45073;52.740;6.784;2023-04-27T05:15:49;11.48;;;5.30;;
59300;SDS011;45073;52.740;6.784;2023-04-27T05:18:16;12.00;;;5.15;;
59300;SDS011;45073;52.740;6.784;2023-04-27T05:20:41;10.27;;;4.93;;
59300;SDS011;45073;52.740;6.784;2023-04-27T05:23:07;10.27;;;4.00;;
59300;SDS011;45073;52.740;6.784;2023-04-27T05:25:33;11.43;;;4.57;;
59300;SDS011;45073;52.740;6.784;2023-04-27T05:28:05;11.45;;;4.68;;
59300;SDS011;45073;52.740;6.784;2023-04-27T05:30:35;13.63;;;5.40;;
59300;SDS011;45073;52.740;6.784;2023-04-27T05:33:01;14.27;;;6.88;;
59300;SDS011;45073;52.740;6.784;2023-04-27T05:35:28;11.02;;;4.75;;
59300;SDS011;45073;52.740;6.784;2023-04-27T05:37:54;10.05;;;4.40;;
59300;SDS011;45073;52.740;6.784;2023-04-27T05:40:20;12.90;;;5.15;;
59300;SDS011;45073;52.740;6.784;2023-04-27T05:42:46;12.90;;;5.93;;
59300;SDS011;45073;52.740;6.784;2023-04-27T05:45:12;14.85;;;6.78;;
59300;SDS011;45073;52.740;6.784;2023-04-27T05:47:38;14.00;;;6.80;;
59300;SDS011;45073;52.740;6.784;2023-04-27T05:50:03;13.43;;;6.95;;
59300;SDS011;45073;52.740;6.784;2023-04-27T05:52:30;11.82;;;5.55;;
59300;SDS011;45073;52.740;6.784;2023-04-27T05:54:56;14.90;;;6.97;;
59300;SDS011;45073;52.740;6.784;2023-04-27T05:57:25;13.18;;;6.28;;
59300;SDS011;45073;52.740;6.784;2023-04-27T05:59:51;14.23;;;5.97;;
59300;SDS011;45073;52.740;6.784;2023-04-27T06:02:17;15.00;;;6.53;;
59300;SDS011;45073;52.740;6.784;2023-04-27T06:04:44;16.42;;;7.00;;
59300;SDS011;45073;52.740;6.784;2023-04-27T06:07:14;12.20;;;6.05;;
59300;SDS011;45073;52.740;6.784;2023-04-27T06:09:40;14.38;;;6.07;;
59300;SDS011;45073;52.740;6.784;2023-04-27T06:12:06;14.63;;;6.72;;
59300;SDS011;45073;52.740;6.784;2023-04-27T06:14:33;12.48;;;5.43;;
59300;SDS011;45073;52.740;6.784;2023-04-27T06:17:00;12.38;;;6.03;;
59300;SDS011;45073;52.740;6.784;2023-04-27T06:19:26;12.30;;;5.95;;
59300;SDS011;45073;52.740;6.784;2023-04-27T06:21:53;13.43;;;6.18;;
59300;SDS011;45073;52.740;6.784;2023-04-27T06:24:19;13.73;;;5.68;;
59300;SDS011;45073;52.740;6.784;2023-04-27T06:26:45;14.40;;;6.30;;
59300;SDS011;45073;52.740;6.784;2023-04-27T06:29:11;11.68;;;5.72;;
59300;SDS011;45073;52.740;6.784;2023-04-27T06:31:37;12.80;;;6.13;;
59300;SDS011;45073;52.740;6.784;2023-04-27T06:34:02;12.13;;;7.28;;
59300;SDS011;45073;52.740;6.784;2023-04-27T06:36:28;13.50;;;6.07;;
59300;SDS011;45073;52.740;6.784;2023-04-27T06:38:55;12.63;;;6.18;;
59300;SDS011;45073;52.740;6.784;2023-04-27T06:41:22;11.65;;;6.60;;
59300;SDS011;45073;52.740;6.784;2023-04-27T06:43:48;15.00;;;6.38;;
59300;SDS011;45073;52.740;6.784;2023-04-27T06:46:14;10.80;;;5.00;;
59300;SDS011;45073;52.740;6.784;2023-04-27T06:48:39;14.27;;;5.68;;
59300;SDS011;45073;52.740;6.784;2023-04-27T06:51:05;11.05;;;4.93;;
59300;SDS011;45073;52.740;6.784;2023-04-27T06:53:31;11.45;;;4.75;;
59300;SDS011;45073;52.740;6.784;2023-04-27T06:55:57;11.60;;;4.78;;
59300;SDS011;45073;52.740;6.784;2023-04-27T06:58:23;10.10;;;4.00;;
59300;SDS011;45073;52.740;6.784;2023-04-27T07:00:48;11.52;;;4.90;;
59300;SDS011;45073;52.740;6.784;2023-04-27T07:03:14;10.10;;;4.07;;
59300;SDS011;45073;52.740;6.784;2023-04-27T07:05:40;12.85;;;4.72;;
59300;SDS011;45073;52.740;6.784;2023-04-27T07:08:06;8.27;;;3.70;;
59300;SDS011;45073;52.740;6.784;2023-04-27T07:10:31;10.93;;;4.10;;
59300;SDS011;45073;52.740;6.784;2023-04-27T07:12:57;10.45;;;4.25;;
59300;SDS011;45073;52.740;6.784;2023-04-27T07:15:23;8.80;;;3.80;;
59300;SDS011;45073;52.740;6.784;2023-04-27T07:17:52;9.13;;;3.47;;
59300;SDS011;45073;52.740;6.784;2023-04-27T07:20:20;7.75;;;3.35;;
59300;SDS011;45073;52.740;6.784;2023-04-27T07:22:46;9.65;;;3.47;;
59300;SDS011;45073;52.740;6.784;2023-04-27T07:25:12;8.27;;;3.17;;
59300;SDS011;45073;52.740;6.784;2023-04-27T07:27:37;9.73;;;3.67;;
59300;SDS011;45073;52.740;6.784;2023-04-27T07:30:04;9.68;;;3.63;;
59300;SDS011;45073;52.740;6.784;2023-04-27T07:32:33;8.40;;;2.90;;
59300;SDS011;45073;52.740;6.784;2023-04-27T07:35:03;8.27;;;2.65;;
59300;SDS011;45073;52.740;6.784;2023-04-27T07:37:29;8.55;;;2.45;;
59300;SDS011;45073;52.740;6.784;2023-04-27T07:39:55;13.55;;;3.33;;
59300;SDS011;45073;52.740;6.784;2023-04-27T07:42:21;12.10;;;2.55;;
59300;SDS011;45073;52.740;6.784;2023-04-27T07:44:47;7.13;;;2.72;;
59300;SDS011;45073;52.740;6.784;2023-04-27T07:47:14;10.23;;;2.78;;
59300;SDS011;45073;52.740;6.784;2023-04-27T07:49:40;7.28;;;2.35;;
59300;SDS011;45073;52.740;6.784;2023-04-27T07:52:06;7.13;;;2.83;;
59300;SDS011;45073;52.740;6.784;2023-04-27T07:54:32;8.10;;;2.75;;
59300;SDS011;45073;52.740;6.784;2023-04-27T07:56:58;7.65;;;2.70;;
59300;SDS011;45073;52.740;6.784;2023-04-27T07:59:27;11.07;;;3.33;;
59300;SDS011;45073;52.740;6.784;2023-04-27T08:01:53;9.85;;;3.22;;
59300;SDS011;45073;52.740;6.784;2023-04-27T08:04:19;9.93;;;3.05;;
59300;SDS011;45073;52.740;6.784;2023-04-27T08:06:44;8.30;;;2.97;;
59300;SDS011;45073;52.740;6.784;2023-04-27T08:09:10;7.32;;;2.80;;
59300;SDS011;45073;52.740;6.784;2023-04-27T08:11:36;8.73;;;2.60;;
59300;SDS011;45073;52.740;6.784;2023-04-27T08:14:01;9.77;;;3.17;;
59300;SDS011;45073;52.740;6.784;2023-04-27T08:16:27;6.65;;;2.70;;
59300;SDS011;45073;52.740;6.784;2023-04-27T08:18:53;6.63;;;2.63;;
59300;SDS011;45073;52.740;6.784;2023-04-27T08:21:18;9.02;;;2.95;;
59300;SDS011;45073;52.740;6.784;2023-04-27T08:23:44;8.85;;;3.13;;
59300;SDS011;45073;52.740;6.784;2023-04-27T08:26:13;8.45;;;2.78;;
59300;SDS011;45073;52.740;6.784;2023-04-27T08:28:39;11.95;;;2.78;;
59300;SDS011;45073;52.740;6.784;2023-04-27T08:31:05;6.55;;;2.17;;
59300;SDS011;45073;52.740;6.784;2023-04-27T08:33:31;7.63;;;2.65;;
59300;SDS011;45073;52.740;6.784;2023-04-27T08:35:56;9.00;;;2.80;;
59300;SDS011;45073;52.740;6.784;2023-04-27T08:38:22;6.80;;;2.00;;
59300;SDS011;45073;52.740;6.784;2023-04-27T08:40:47;7.43;;;2.25;;
59300;SDS011;45073;52.740;6.784;2023-04-27T08:43:13;9.63;;;2.83;;
59300;SDS011;45073;52.740;6.784;2023-04-27T08:45:38;5.57;;;2.00;;
59300;SDS011;45073;52.740;6.784;2023-04-27T08:48:14;6.05;;;2.40;;
59300;SDS011;45073;52.740;6.784;2023-04-27T08:50:40;12.40;;;2.58;;
59300;SDS011;45073;52.740;6.784;2023-04-27T08:53:17;7.03;;;2.40;;
59300;SDS011;45073;52.740;6.784;2023-04-27T08:55:45;8.50;;;2.33;;
59300;SDS011;45073;52.740;6.784;2023-04-27T08:58:11;8.48;;;2.30;;
59300;SDS011;45073;52.740;6.784;2023-04-27T09:00:41;7.20;;;2.70;;
59300;SDS011;45073;52.740;6.784;2023-04-27T09:03:17;7.93;;;2.53;;
59300;SDS011;45073;52.740;6.784;2023-04-27T09:05:46;6.38;;;1.85;;
59300;SDS011;45073;52.740;6.784;2023-04-27T09:08:12;6.80;;;2.22;;
59300;SDS011;45073;52.740;6.784;2023-04-27T09:10:48;7.22;;;2.53;;
59300;SDS011;45073;52.740;6.784;2023-04-27T09:13:15;6.53;;;2.53;;
59300;SDS011;45073;52.740;6.784;2023-04-27T09:15:42;7.05;;;2.67;;
59300;SDS011;45073;52.740;6.784;2023-04-27T09:20:44;5.53;;;2.20;;
59300;SDS011;45073;52.740;6.784;2023-04-27T09:23:25;7.30;;;2.42;;
59300;SDS011;45073;52.740;6.784;2023-04-27T09:25:56;8.43;;;2.63;;
59300;SDS011;45073;52.740;6.784;2023-04-27T09:28:26;7.75;;;2.20;;
59300;SDS011;45073;52.740;6.784;2023-04-27T09:30:54;6.55;;;2.20;;
59300;SDS011;45073;52.740;6.784;2023-04-27T09:33:24;9.25;;;2.58;;
59300;SDS011;45073;52.740;6.784;2023-04-27T09:35:51;6.82;;;2.35;;
59300;SDS011;45073;52.740;6.784;2023-04-27T09:38:17;6.50;;;2.10;;
59300;SDS011;45073;52.740;6.784;2023-04-27T09:40:44;6.38;;;2.85;;
59300;SDS011;45073;52.740;6.784;2023-04-27T09:43:10;8.35;;;2.53;;
59300;SDS011;45073;52.740;6.784;2023-04-27T09:45:36;6.68;;;2.20;;
59300;SDS011;45073;52.740;6.784;2023-04-27T09:48:06;7.07;;;2.50;;
59300;SDS011;45073;52.740;6.784;2023-04-27T09:50:38;6.40;;;2.30;;
59300;SDS011;45073;52.740;6.784;2023-04-27T09:53:09;9.00;;;2.95;;
59300;SDS011;45073;52.740;6.784;2023-04-27T10:01:38;8.00;;;2.63;;
59300;SDS011;45073;52.740;6.784;2023-04-27T10:07:13;8.60;;;2.75;;
59300;SDS011;45073;52.740;6.784;2023-04-27T10:09:40;6.43;;;2.30;;
59300;SDS011;45073;52.740;6.784;2023-04-27T10:12:13;6.63;;;2.85;;
59300;SDS011;45073;52.740;6.784;2023-04-27T10:17:15;6.00;;;2.40;;
59300;SDS011;45073;52.740;6.784;2023-04-27T10:19:51;6.55;;;2.60;;
59300;SDS011;45073;52.740;6.784;2023-04-27T10:22:19;7.32;;;2.83;;
59300;SDS011;45073;52.740;6.784;2023-04-27T10:24:47;7.07;;;3.03;;
59300;SDS011;45073;52.740;6.784;2023-04-27T10:27:15;7.65;;;2.60;;
59300;SDS011;45073;52.740;6.784;2023-04-27T10:29:47;8.10;;;2.95;;
59300;SDS011;45073;52.740;6.784;2023-04-27T10:32:21;9.93;;;3.10;;
59300;SDS011;45073;52.740;6.784;2023-04-27T10:34:49;8.30;;;3.35;;
59300;SDS011;45073;52.740;6.784;2023-04-27T10:37:16;8.15;;;2.80;;
59300;SDS011;45073;52.740;6.784;2023-04-27T10:39:44;8.07;;;2.92;;
59300;SDS011;45073;52.740;6.784;2023-04-27T10:42:11;9.27;;;3.00;;
59300;SDS011;45073;52.740;6.784;2023-04-27T10:44:37;10.90;;;3.45;;
59300;SDS011;45073;52.740;6.784;2023-04-27T10:47:13;7.70;;;3.20;;
59300;SDS011;45073;52.740;6.784;2023-04-27T10:49:40;8.43;;;3.50;;
59300;SDS011;45073;52.740;6.784;2023-04-27T10:52:06;7.97;;;3.35;;
59300;SDS011;45073;52.740;6.784;2023-04-27T10:54:33;8.90;;;3.05;;
59300;SDS011;45073;52.740;6.784;2023-04-27T10:57:03;8.65;;;4.50;;
59300;SDS011;45073;52.740;6.784;2023-04-27T10:59:33;11.77;;;5.13;;
59300;SDS011;45073;52.740;6.784;2023-04-27T11:02:01;7.50;;;2.65;;
59300;SDS011;45073;52.740;6.784;2023-04-27T11:04:36;9.77;;;3.40;;
59300;SDS011;45073;52.740;6.784;2023-04-27T11:07:09;8.38;;;4.18;;
59300;SDS011;45073;52.740;6.784;2023-04-27T11:09:38;7.45;;;3.08;;
59300;SDS011;45073;52.740;6.784;2023-04-27T11:12:07;11.52;;;3.65;;
59300;SDS011;45073;52.740;6.784;2023-04-27T11:14:36;10.65;;;3.45;;
59300;SDS011;45073;52.740;6.784;2023-04-27T11:17:02;7.10;;;3.35;;
59300;SDS011;45073;52.740;6.784;2023-04-27T11:19:29;9.13;;;3.50;;
59300;SDS011;45073;52.740;6.784;2023-04-27T11:22:04;7.45;;;3.33;;
59300;SDS011;45073;52.740;6.784;2023-04-27T11:24:31;8.68;;;4.45;;
59300;SDS011;45073;52.740;6.784;2023-04-27T11:26:57;9.18;;;3.53;;
59300;SDS011;45073;52.740;6.784;2023-04-27T11:29:24;9.32;;;4.60;;
59300;SDS011;45073;52.740;6.784;2023-04-27T11:31:49;8.93;;;3.55;;
59300;SDS011;45073;52.740;6.784;2023-04-27T11:34:19;8.75;;;4.30;;
59300;SDS011;45073;52.740;6.784;2023-04-27T11:37:00;9.02;;;3.05;;
59300;SDS011;45073;52.740;6.784;2023-04-27T11:44:59;7.55;;;3.22;;
59300;SDS011;45073;52.740;6.784;2023-04-27T11:47:28;7.95;;;3.22;;
59300;SDS011;45073;52.740;6.784;2023-04-27T11:49:55;8.15;;;4.20;;
59300;SDS011;45073;52.740;6.784;2023-04-27T11:52:26;7.50;;;3.83;;
59300;SDS011;45073;52.740;6.784;2023-04-27T11:54:59;9.00;;;3.70;;
59300;SDS011;45073;52.740;6.784;2023-04-27T11:57:30;10.18;;;4.30;;
59300;SDS011;45073;52.740;6.784;2023-04-27T12:00:01;10.55;;;4.00;;
59300;SDS011;45073;52.740;6.784;2023-04-27T12:02:34;8.07;;;3.78;;
59300;SDS011;45073;52.740;6.784;2023-04-27T12:05:00;10.13;;;3.92;;
59300;SDS011;45073;52.740;6.784;2023-04-27T12:07:27;9.32;;;3.90;;
59300;SDS011;45073;52.740;6.784;2023-04-27T12:09:53;7.38;;;3.22;;
59300;SDS011;45073;52.740;6.784;2023-04-27T12:12:19;7.47;;;2.85;;
59300;SDS011;45073;52.740;6.784;2023-04-27T12:14:46;8.00;;;3.95;;
59300;SDS011;45073;52.740;6.784;2023-04-27T12:17:13;9.50;;;4.30;;
59300;SDS011;45073;52.740;6.784;2023-04-27T12:19:38;10.32;;;3.53;;
59300;SDS011;45073;52.740;6.784;2023-04-27T12:22:04;8.75;;;3.95;;
59300;SDS011;45073;52.740;6.784;2023-04-27T12:24:30;8.00;;;4.25;;
59300;SDS011;45073;52.740;6.784;2023-04-27T12:26:56;7.65;;;4.13;;
59300;SDS011;45073;52.740;6.784;2023-04-27T12:29:23;9.30;;;4.20;;
59300;SDS011;45073;52.740;6.784;2023-04-27T12:31:49;9.00;;;3.80;;
59300;SDS011;45073;52.740;6.784;2023-04-27T12:34:15;8.38;;;3.40;;
59300;SDS011;45073;52.740;6.784;2023-04-27T12:36:42;9.43;;;4.20;;
59300;SDS011;45073;52.740;6.784;2023-04-27T12:39:18;8.95;;;4.18;;
59300;SDS011;45073;52.740;6.784;2023-04-27T12:41:45;8.25;;;3.75;;
59300;SDS011;45073;52.740;6.784;2023-04-27T12:44:12;8.55;;;4.30;;
59300;SDS011;45073;52.740;6.784;2023-04-27T12:46:39;9.77;;;4.80;;
59300;SDS011;45073;52.740;6.784;2023-04-27T12:49:05;8.65;;;4.45;;
59300;SDS011;45073;52.740;6.784;2023-04-27T12:51:32;8.45;;;3.20;;
59300;SDS011;45073;52.740;6.784;2023-04-27T12:54:04;8.20;;;3.58;;
59300;SDS011;45073;52.740;6.784;2023-04-27T12:56:31;8.77;;;4.70;;
59300;SDS011;45073;52.740;6.784;2023-04-27T12:58:57;8.73;;;4.35;;
59300;SDS011;45073;52.740;6.784;2023-04-27T13:01:24;10.07;;;4.15;;
59300;SDS011;45073;52.740;6.784;2023-04-27T13:03:51;9.85;;;4.63;;
59300;SDS011;45073;52.740;6.784;2023-04-27T13:06:23;10.38;;;4.53;;
59300;SDS011;45073;52.740;6.784;2023-04-27T13:08:49;8.85;;;3.80;;
59300;SDS011;45073;52.740;6.784;2023-04-27T13:11:15;10.20;;;4.40;;
59300;SDS011;45073;52.740;6.784;2023-04-27T13:13:42;10.07;;;5.55;;
59300;SDS011;45073;52.740;6.784;2023-04-27T13:16:11;9.60;;;4.60;;
59300;SDS011;45073;52.740;6.784;2023-04-27T13:18:38;12.45;;;5.60;;
59300;SDS011;45073;52.740;6.784;2023-04-27T13:21:04;9.05;;;3.72;;
59300;SDS011;45073;52.740;6.784;2023-04-27T13:23:31;9.15;;;3.80;;
59300;SDS011;45073;52.740;6.784;2023-04-27T13:25:57;8.32;;;4.22;;
59300;SDS011;45073;52.740;6.784;2023-04-27T13:28:23;9.38;;;4.50;;
59300;SDS011;45073;52.740;6.784;2023-04-27T13:30:49;9.65;;;4.80;;
59300;SDS011;45073;52.740;6.784;2023-04-27T13:33:15;9.25;;;4.20;;
59300;SDS011;45073;52.740;6.784;2023-04-27T13:35:41;9.27;;;4.40;;
59300;SDS011;45073;52.740;6.784;2023-04-27T13:38:06;9.50;;;4.40;;
59300;SDS011;45073;52.740;6.784;2023-04-27T13:40:32;8.68;;;4.65;;
59300;SDS011;45073;52.740;6.784;2023-04-27T13:42:58;8.95;;;4.45;;
59300;SDS011;45073;52.740;6.784;2023-04-27T13:45:24;7.85;;;4.40;;
59300;SDS011;45073;52.740;6.784;2023-04-27T13:47:49;10.13;;;4.07;;
59300;SDS011;45073;52.740;6.784;2023-04-27T13:50:15;8.35;;;4.15;;
59300;SDS011;45073;52.740;6.784;2023-04-27T13:52:41;9.10;;;4.07;;
59300;SDS011;45073;52.740;6.784;2023-04-27T13:55:08;10.63;;;4.40;;
59300;SDS011;45073;52.740;6.784;2023-04-27T13:57:35;8.98;;;4.00;;
59300;SDS011;45073;52.740;6.784;2023-04-27T14:00:01;8.98;;;4.40;;
59300;SDS011;45073;52.740;6.784;2023-04-27T14:02:28;9.52;;;4.00;;
59300;SDS011;45073;52.740;6.784;2023-04-27T14:04:54;10.55;;;4.40;;
59300;SDS011;45073;52.740;6.784;2023-04-27T14:07:20;8.52;;;4.13;;
59300;SDS011;45073;52.740;6.784;2023-04-27T14:09:46;8.68;;;3.53;;
59300;SDS011;45073;52.740;6.784;2023-04-27T14:12:11;9.10;;;3.72;;
59300;SDS011;45073;52.740;6.784;2023-04-27T14:14:37;8.88;;;4.15;;
59300;SDS011;45073;52.740;6.784;2023-04-27T14:17:03;9.55;;;4.28;;
59300;SDS011;45073;52.740;6.784;2023-04-27T14:19:29;7.70;;;3.15;;
59300;SDS011;45073;52.740;6.784;2023-04-27T14:21:55;8.07;;;3.50;;
59300;SDS011;45073;52.740;6.784;2023-04-27T14:24:21;8.20;;;4.25;;
59300;SDS011;45073;52.740;6.784;2023-04-27T14:26:47;7.90;;;4.00;;
59300;SDS011;45073;52.740;6.784;2023-04-27T14:29:15;9.00;;;4.47;;
59300;SDS011;45073;52.740;6.784;2023-04-27T14:31:41;9.15;;;3.60;;
59300;SDS011;45073;52.740;6.784;2023-04-27T14:34:07;8.25;;;3.13;;
59300;SDS011;45073;52.740;6.784;2023-04-27T14:36:33;8.15;;;3.88;;
59300;SDS011;45073;52.740;6.784;2023-04-27T14:38:59;7.85;;;3.80;;
59300;SDS011;45073;52.740;6.784;2023-04-27T14:41:25;9.90;;;3.63;;
59300;SDS011;45073;52.740;6.784;2023-04-27T14:43:52;9.00;;;3.90;;
59300;SDS011;45073;52.740;6.784;2023-04-27T14:46:17;9.38;;;3.42;;
59300;SDS011;45073;52.740;6.784;2023-04-27T14:48:44;7.95;;;3.40;;
59300;SDS011;45073;52.740;6.784;2023-04-27T14:51:10;7.70;;;3.90;;
59300;SDS011;45073;52.740;6.784;2023-04-27T14:53:37;7.60;;;3.72;;
59300;SDS011;45073;52.740;6.784;2023-04-27T14:56:02;8.27;;;3.75;;
59300;SDS011;45073;52.740;6.784;2023-04-27T14:58:28;9.55;;;3.70;;
59300;SDS011;45073;52.740;6.784;2023-04-27T15:00:56;8.98;;;3.38;;
59300;SDS011;45073;52.740;6.784;2023-04-27T15:03:22;8.18;;;3.95;;